sensor_id;sensor_type;location;lat;lon;timestamp;pressure;altitude;pressure_sealevel;temperature;humidity
50250;BME280;36133;42.522;27.456;2023-05-15T00:01:12;101514.28;;;20.73;37.10
50250;BME280;36133;42.522;27.456;2023-05-15T00:03:38;101619.34;;;21.46;36.99
50250;BME280;36133;42.522;27.456;2023-05-15T00:06:04;101628.88;;;21.78;36.49
50250;BME280;36133;42.522;27.456;2023-05-15T00:08:30;101644.91;;;21.93;36.39
50250;BME280;36133;42.522;27.456;2023-05-15T00:10:55;101645.13;;;21.91;35.96
50250;BME280;36133;42.522;27.456;2023-05-15T00:13:21;101562.59;;;21.51;35.80
50250;BME280;36133;42.522;27.456;2023-05-15T00:15:46;101541.66;;;21.15;36.21
50250;BME280;36133;42.522;27.456;2023-05-15T00:18:12;101576.56;;;21.50;36.16
50250;BME280;36133;42.522;27.456;2023-05-15T00:20:37;101620.28;;;21.86;36.26
50250;BME280;36133;42.522;27.456;2023-05-15T00:23:03;101569.00;;;21.22;36.62
50250;BME280;36133;42.522;27.456;2023-05-15T00:25:28;101586.31;;;21.22;36.94
50250;BME280;36133;42.522;27.456;2023-05-15T00:27:54;101559.94;;;21.21;37.11
50250;BME280;36133;42.522;27.456;2023-05-15T00:30:19;101617.63;;;21.68;36.76
50250;BME280;36133;42.522;27.456;2023-05-15T00:32:45;101625.16;;;21.38;38.21
50250;BME280;36133;42.522;27.456;2023-05-15T00:35:10;101596.31;;;21.17;38.14
50250;BME280;36133;42.522;27.456;2023-05-15T00:37:36;101608.22;;;21.52;37.82
50250;BME280;36133;42.522;27.456;2023-05-15T00:40:01;101572.50;;;21.41;37.91
50250;BME280;36133;42.522;27.456;2023-05-15T00:42:27;101582.59;;;21.17;38.60
50250;BME280;36133;42.522;27.456;2023-05-15T00:44:55;101633.91;;;21.58;38.37
50250;BME280;36133;42.522;27.456;2023-05-15T00:47:22;101548.69;;;21.11;38.39
50250;BME280;36133;42.522;27.456;2023-05-15T00:49:48;101609.75;;;20.53;38.93
50250;BME280;36133;42.522;27.456;2023-05-15T00:52:15;101635.34;;;20.29;40.46
50250;BME280;36133;42.522;27.456;2023-05-15T00:54:41;101616.63;;;20.26;40.32
50250;BME280;36133;42.522;27.456;2023-05-15T00:57:07;101625.91;;;20.06;40.89
50250;BME280;36133;42.522;27.456;2023-05-15T00:59:33;101561.44;;;20.52;39.05
50250;BME280;36133;42.522;27.456;2023-05-15T01:01:59;101535.59;;;20.41;38.85
50250;BME280;36133;42.522;27.456;2023-05-15T01:04:25;101561.78;;;20.07;39.24
50250;BME280;36133;42.522;27.456;2023-05-15T01:06:51;101429.25;;;18.42;39.75
50250;BME280;36133;42.522;27.456;2023-05-15T01:09:18;101505.75;;;19.30;39.28
50250;BME280;36133;42.522;27.456;2023-05-15T01:11:45;101511.25;;;20.03;37.49
50250;BME280;36133;42.522;27.456;2023-05-15T01:14:11;101589.75;;;21.06;36.72
50250;BME280;36133;42.522;27.456;2023-05-15T01:16:37;101582.66;;;20.87;36.78
50250;BME280;36133;42.522;27.456;2023-05-15T01:19:03;101533.13;;;18.80;38.34
50250;BME280;36133;42.522;27.456;2023-05-15T01:32:18;101557.53;;;20.71;35.48
50250;BME280;36133;42.522;27.456;2023-05-15T01:35:09;101552.28;;;21.23;34.46
50250;BME280;36133;42.522;27.456;2023-05-15T01:37:44;101493.19;;;20.44;34.95
50250;BME280;36133;42.522;27.456;2023-05-15T01:40:15;101550.47;;;21.17;34.43
50250;BME280;36133;42.522;27.456;2023-05-15T01:42:53;101453.72;;;19.48;36.09
50250;BME280;36133;42.522;27.456;2023-05-15T01:45:20;101548.44;;;20.59;36.02
50250;BME280;36133;42.522;27.456;2023-05-15T01:47:47;101546.09;;;20.14;36.69
50250;BME280;36133;42.522;27.456;2023-05-15T01:50:16;101408.16;;;19.54;36.57
50250;BME280;36133;42.522;27.456;2023-05-15T01:52:44;101384.19;;;19.13;36.90
50250;BME280;36133;42.522;27.456;2023-05-15T01:55:13;101539.13;;;20.00;37.96
50250;BME280;36133;42.522;27.456;2023-05-15T01:57:41;101551.66;;;19.71;39.03
50250;BME280;36133;42.522;27.456;2023-05-15T02:00:07;101469.13;;;19.24;39.62
50250;BME280;36133;42.522;27.456;2023-05-15T02:02:35;101529.19;;;20.17;38.81
50250;BME280;36133;42.522;27.456;2023-05-15T02:05:01;101490.16;;;19.30;39.80
50250;BME280;36133;42.522;27.456;2023-05-15T02:07:27;101534.63;;;19.87;39.22
50250;BME280;36133;42.522;27.456;2023-05-15T02:09:54;101488.63;;;20.38;37.57
50250;BME280;36133;42.522;27.456;2023-05-15T02:12:20;101472.59;;;19.93;38.39
50250;BME280;36133;42.522;27.456;2023-05-15T02:14:48;101523.41;;;19.52;39.63
50250;BME280;36133;42.522;27.456;2023-05-15T02:17:14;101531.78;;;19.39;40.42
50250;BME280;36133;42.522;27.456;2023-05-15T02:19:40;101446.56;;;18.61;40.76
50250;BME280;36133;42.522;27.456;2023-05-15T02:22:06;101240.19;;;17.39;41.54
50250;BME280;36133;42.522;27.456;2023-05-15T02:24:31;101394.38;;;18.37;41.76
50250;BME280;36133;42.522;27.456;2023-05-15T02:27:15;101353.84;;;18.28;41.42
50250;BME280;36133;42.522;27.456;2023-05-15T02:37:47;101505.03;;;18.60;42.66
50250;BME280;36133;42.522;27.456;2023-05-15T02:40:14;101353.63;;;17.21;42.88
50250;BME280;36133;42.522;27.456;2023-05-15T02:42:41;101462.34;;;18.90;41.18
50250;BME280;36133;42.522;27.456;2023-05-15T02:45:09;101511.25;;;19.23;41.21
50250;BME280;36133;42.522;27.456;2023-05-15T02:47:35;101461.75;;;18.57;41.30
50250;BME280;36133;42.522;27.456;2023-05-15T02:50:02;101493.03;;;18.61;41.34
50250;BME280;36133;42.522;27.456;2023-05-15T02:52:28;101466.75;;;18.66;40.83
50250;BME280;36133;42.522;27.456;2023-05-15T02:54:53;101502.81;;;19.25;40.10
50250;BME280;36133;42.522;27.456;2023-05-15T02:57:19;101506.47;;;19.19;40.57
50250;BME280;36133;42.522;27.456;2023-05-15T02:59:45;101480.06;;;18.50;42.51
50250;BME280;36133;42.522;27.456;2023-05-15T03:02:10;101332.34;;;17.81;42.27
50250;BME280;36133;42.522;27.456;2023-05-15T03:04:36;101449.81;;;18.20;43.87
50250;BME280;36133;42.522;27.456;2023-05-15T03:07:01;101396.25;;;18.37;43.30
50250;BME280;36133;42.522;27.456;2023-05-15T03:09:27;101404.19;;;18.95;42.33
50250;BME280;36133;42.522;27.456;2023-05-15T03:11:52;101491.81;;;19.31;42.55
50250;BME280;36133;42.522;27.456;2023-05-15T03:14:18;101487.03;;;19.45;42.33
50250;BME280;36133;42.522;27.456;2023-05-15T03:16:43;101481.06;;;19.12;42.80
50250;BME280;36133;42.522;27.456;2023-05-15T03:19:09;101491.91;;;19.00;43.29
50250;BME280;36133;42.522;27.456;2023-05-15T03:21:34;101373.09;;;19.26;41.34
50250;BME280;36133;42.522;27.456;2023-05-15T03:24:00;101425.75;;;18.85;42.48
50250;BME280;36133;42.522;27.456;2023-05-15T03:26:26;101411.94;;;18.80;42.01
50250;BME280;36133;42.522;27.456;2023-05-15T03:28:52;101502.50;;;19.95;40.78
50250;BME280;36133;42.522;27.456;2023-05-15T03:31:17;101464.97;;;19.95;40.77
50250;BME280;36133;42.522;27.456;2023-05-15T03:33:43;101461.34;;;20.13;40.48
50250;BME280;36133;42.522;27.456;2023-05-15T03:36:11;101465.91;;;20.49;40.57
50250;BME280;36133;42.522;27.456;2023-05-15T03:38:36;101439.34;;;19.53;42.13
50250;BME280;36133;42.522;27.456;2023-05-15T03:41:02;101478.41;;;20.45;41.63
50250;BME280;36133;42.522;27.456;2023-05-15T03:43:27;101448.50;;;19.95;41.96
50250;BME280;36133;42.522;27.456;2023-05-15T03:45:53;101429.97;;;19.79;42.24
50250;BME280;36133;42.522;27.456;2023-05-15T03:48:19;101408.66;;;19.81;41.55
50250;BME280;36133;42.522;27.456;2023-05-15T03:50:45;101461.78;;;19.80;42.58
50250;BME280;36133;42.522;27.456;2023-05-15T03:53:10;101455.66;;;19.96;42.60
50250;BME280;36133;42.522;27.456;2023-05-15T03:55:36;101479.16;;;20.64;42.04
50250;BME280;36133;42.522;27.456;2023-05-15T03:58:02;101505.88;;;21.33;40.51
50250;BME280;36133;42.522;27.456;2023-05-15T04:00:27;101503.34;;;21.32;40.62
50250;BME280;36133;42.522;27.456;2023-05-15T04:02:53;101498.31;;;21.17;41.01
50250;BME280;36133;42.522;27.456;2023-05-15T04:05:18;101516.84;;;22.09;39.77
50250;BME280;36133;42.522;27.456;2023-05-15T04:07:46;101498.56;;;21.51;40.87
50250;BME280;36133;42.522;27.456;2023-05-15T04:10:11;101154.34;;;19.36;40.98
50250;BME280;36133;42.522;27.456;2023-05-15T04:12:37;101492.59;;;21.30;41.50
50250;BME280;36133;42.522;27.456;2023-05-15T04:17:38;101419.81;;;22.25;38.47
50250;BME280;36133;42.522;27.456;2023-05-15T04:20:04;101480.06;;;22.89;38.37
50250;BME280;36133;42.522;27.456;2023-05-15T04:22:31;101490.22;;;23.38;37.52
50250;BME280;36133;42.522;27.456;2023-05-15T04:24:56;101478.09;;;22.39;38.90
50250;BME280;36133;42.522;27.456;2023-05-15T04:27:22;101446.72;;;21.43;38.09
50250;BME280;36133;42.522;27.456;2023-05-15T04:29:47;101526.78;;;22.38;37.40
50250;BME280;36133;42.522;27.456;2023-05-15T04:32:13;101508.59;;;22.83;36.75
50250;BME280;36133;42.522;27.456;2023-05-15T04:34:38;101454.84;;;22.46;36.87
50250;BME280;36133;42.522;27.456;2023-05-15T04:37:05;101441.34;;;22.78;36.98
50250;BME280;36133;42.522;27.456;2023-05-15T04:39:31;101465.63;;;21.79;39.11
50250;BME280;36133;42.522;27.456;2023-05-15T04:41:56;101512.13;;;22.49;38.47
50250;BME280;36133;42.522;27.456;2023-05-15T04:44:22;101504.78;;;22.10;38.80
50250;BME280;36133;42.522;27.456;2023-05-15T04:46:47;101492.84;;;21.41;40.07
50250;BME280;36133;42.522;27.456;2023-05-15T04:49:13;101527.22;;;21.31;40.47
50250;BME280;36133;42.522;27.456;2023-05-15T04:51:38;101521.13;;;21.53;40.19
50250;BME280;36133;42.522;27.456;2023-05-15T04:54:05;101514.31;;;21.55;40.56
50250;BME280;36133;42.522;27.456;2023-05-15T04:56:31;101434.22;;;21.23;40.67
50250;BME280;36133;42.522;27.456;2023-05-15T04:58:56;101516.56;;;21.70;40.82
50250;BME280;36133;42.522;27.456;2023-05-15T05:01:22;101534.03;;;21.64;40.04
50250;BME280;36133;42.522;27.456;2023-05-15T05:03:47;101528.53;;;21.41;40.80
50250;BME280;36133;42.522;27.456;2023-05-15T05:06:13;101526.81;;;21.86;40.01
50250;BME280;36133;42.522;27.456;2023-05-15T05:08:38;101524.06;;;21.86;40.09
50250;BME280;36133;42.522;27.456;2023-05-15T05:11:04;101520.19;;;21.99;39.98
50250;BME280;36133;42.522;27.456;2023-05-15T05:13:29;101376.69;;;21.69;39.38
50250;BME280;36133;42.522;27.456;2023-05-15T05:15:55;101512.28;;;21.62;40.65
50250;BME280;36133;42.522;27.456;2023-05-15T05:18:20;101512.22;;;21.86;39.93
50250;BME280;36133;42.522;27.456;2023-05-15T05:20:46;101493.63;;;20.83;41.93
50250;BME280;36133;42.522;27.456;2023-05-15T05:23:11;101478.25;;;21.05;41.66
50250;BME280;36133;42.522;27.456;2023-05-15T05:25:42;101493.16;;;20.74;42.21
50250;BME280;36133;42.522;27.456;2023-05-15T05:28:07;101497.75;;;21.27;40.91
50250;BME280;36133;42.522;27.456;2023-05-15T05:30:33;101506.09;;;21.44;40.17
50250;BME280;36133;42.522;27.456;2023-05-15T05:32:58;101479.69;;;21.31;39.93
50250;BME280;36133;42.522;27.456;2023-05-15T05:35:24;101520.78;;;22.01;39.19
50250;BME280;36133;42.522;27.456;2023-05-15T05:37:51;101488.25;;;21.81;38.10
50250;BME280;36133;42.522;27.456;2023-05-15T05:40:17;101483.19;;;21.26;39.76
50250;BME280;36133;42.522;27.456;2023-05-15T05:42:42;101506.53;;;21.17;40.05
50250;BME280;36133;42.522;27.456;2023-05-15T05:45:08;101451.88;;;20.81;41.44
50250;BME280;36133;42.522;27.456;2023-05-15T05:47:34;101522.94;;;20.70;44.14
50250;BME280;36133;42.522;27.456;2023-05-15T05:50:00;101506.44;;;21.71;44.18
50250;BME280;36133;42.522;27.456;2023-05-15T05:52:25;101506.50;;;21.87;44.24
50250;BME280;36133;42.522;27.456;2023-05-15T05:54:51;101480.53;;;20.85;46.59
50250;BME280;36133;42.522;27.456;2023-05-15T05:57:17;101461.91;;;20.75;47.21
50250;BME280;36133;42.522;27.456;2023-05-15T05:59:42;101460.06;;;20.57;48.47
50250;BME280;36133;42.522;27.456;2023-05-15T06:02:08;101484.59;;;21.41;47.65
50250;BME280;36133;42.522;27.456;2023-05-15T06:04:34;101507.03;;;21.02;50.27
50250;BME280;36133;42.522;27.456;2023-05-15T06:06:59;101500.31;;;22.66;46.71
50250;BME280;36133;42.522;27.456;2023-05-15T06:09:25;101487.44;;;22.38;47.12
50250;BME280;36133;42.522;27.456;2023-05-15T06:11:50;101388.16;;;22.56;45.77
50250;BME280;36133;42.522;27.456;2023-05-15T06:14:16;101453.09;;;22.74;45.52
50250;BME280;36133;42.522;27.456;2023-05-15T06:16:41;101479.53;;;23.25;45.35
50250;BME280;36133;42.522;27.456;2023-05-15T06:19:08;101493.41;;;24.40;42.84
50250;BME280;36133;42.522;27.456;2023-05-15T06:21:33;101498.94;;;24.40;43.02
50250;BME280;36133;42.522;27.456;2023-05-15T06:23:59;101500.91;;;25.03;41.50
50250;BME280;36133;42.522;27.456;2023-05-15T06:26:25;101441.56;;;22.27;46.12
50250;BME280;36133;42.522;27.456;2023-05-15T06:28:50;101513.06;;;22.72;45.58
50250;BME280;36133;42.522;27.456;2023-05-15T06:31:16;101516.31;;;22.23;47.06
50250;BME280;36133;42.522;27.456;2023-05-15T06:33:41;101509.38;;;22.49;46.94
50250;BME280;36133;42.522;27.456;2023-05-15T06:36:07;101255.97;;;19.88;48.78
50250;BME280;36133;42.522;27.456;2023-05-15T06:38:33;101507.00;;;22.70;46.12
50250;BME280;36133;42.522;27.456;2023-05-15T06:40:58;101471.47;;;22.68;45.78
50250;BME280;36133;42.522;27.456;2023-05-15T06:43:24;101415.91;;;21.52;47.68
50250;BME280;36133;42.522;27.456;2023-05-15T06:45:49;101508.97;;;22.58;46.54
50250;BME280;36133;42.522;27.456;2023-05-15T06:48:15;101434.56;;;21.39;47.92
50250;BME280;36133;42.522;27.456;2023-05-15T06:50:41;101477.56;;;23.59;44.68
50250;BME280;36133;42.522;27.456;2023-05-15T06:53:06;101496.28;;;24.50;42.55
50250;BME280;36133;42.522;27.456;2023-05-15T06:55:32;101456.78;;;23.74;42.98
50250;BME280;36133;42.522;27.456;2023-05-15T06:57:58;101380.69;;;21.78;45.46
50250;BME280;36133;42.522;27.456;2023-05-15T07:00:24;101428.38;;;22.91;44.51
50250;BME280;36133;42.522;27.456;2023-05-15T07:02:50;101493.81;;;22.72;45.61
50250;BME280;36133;42.522;27.456;2023-05-15T07:08:37;101457.81;;;22.90;44.59
50250;BME280;36133;42.522;27.456;2023-05-15T07:11:03;101468.03;;;23.28;44.28
50250;BME280;36133;42.522;27.456;2023-05-15T07:13:29;101429.09;;;23.25;44.19
50250;BME280;36133;42.522;27.456;2023-05-15T07:15:54;101471.25;;;23.25;44.38
50250;BME280;36133;42.522;27.456;2023-05-15T07:18:20;101487.88;;;23.14;45.08
50250;BME280;36133;42.522;27.456;2023-05-15T07:20:47;101491.91;;;23.83;44.20
50250;BME280;36133;42.522;27.456;2023-05-15T07:23:12;101421.50;;;24.24;41.91
50250;BME280;36133;42.522;27.456;2023-05-15T07:25:38;101351.06;;;22.97;43.82
50250;BME280;36133;42.522;27.456;2023-05-15T07:28:04;101478.53;;;24.41;43.11
50250;BME280;36133;42.522;27.456;2023-05-15T07:30:29;101490.28;;;24.09;43.80
50250;BME280;36133;42.522;27.456;2023-05-15T07:32:55;101452.09;;;23.74;43.32
50250;BME280;36133;42.522;27.456;2023-05-15T07:35:20;101483.91;;;22.88;45.25
50250;BME280;36133;42.522;27.456;2023-05-15T07:37:48;101185.88;;;20.39;46.42
50250;BME280;36133;42.522;27.456;2023-05-15T07:40:13;101156.66;;;21.13;45.72
50250;BME280;36133;42.522;27.456;2023-05-15T07:42:42;101344.75;;;23.41;42.99
50250;BME280;36133;42.522;27.456;2023-05-15T07:45:08;101476.22;;;23.06;45.48
50250;BME280;36133;42.522;27.456;2023-05-15T07:47:34;101479.50;;;24.89;42.29
50250;BME280;36133;42.522;27.456;2023-05-15T07:50:00;101169.34;;;23.24;41.78
50250;BME280;36133;42.522;27.456;2023-05-15T07:52:26;101314.34;;;24.11;41.43
50250;BME280;36133;42.522;27.456;2023-05-15T07:54:51;101331.22;;;24.20;41.68
50250;BME280;36133;42.522;27.456;2023-05-15T07:57:20;101454.28;;;25.12;42.07
50250;BME280;36133;42.522;27.456;2023-05-15T07:59:45;101479.84;;;25.39;41.50
50250;BME280;36133;42.522;27.456;2023-05-15T08:02:11;101492.34;;;26.10;40.48
50250;BME280;36133;42.522;27.456;2023-05-15T08:04:36;101195.13;;;24.46;39.42
50250;BME280;36133;42.522;27.456;2023-05-15T08:07:02;101104.13;;;24.62;38.49
50250;BME280;36133;42.522;27.456;2023-05-15T08:09:28;101303.66;;;24.57;40.30
50250;BME280;36133;42.522;27.456;2023-05-15T08:11:55;101270.91;;;23.96;40.80
50250;BME280;36133;42.522;27.456;2023-05-15T08:14:21;100985.88;;;21.28;42.48
50250;BME280;36133;42.522;27.456;2023-05-15T08:16:48;101213.19;;;22.82;43.05
50250;BME280;36133;42.522;27.456;2023-05-15T08:19:14;101212.97;;;22.84;43.27
50250;BME280;36133;42.522;27.456;2023-05-15T08:21:40;101393.88;;;24.89;41.22
50250;BME280;36133;42.522;27.456;2023-05-15T08:24:05;101231.53;;;24.01;40.71
50250;BME280;36133;42.522;27.456;2023-05-15T08:26:31;101252.31;;;24.56;39.50
50250;BME280;36133;42.522;27.456;2023-05-15T08:28:57;101202.63;;;24.56;39.18
50250;BME280;36133;42.522;27.456;2023-05-15T08:31:22;101396.88;;;25.29;39.09
50250;BME280;36133;42.522;27.456;2023-05-15T08:33:48;101458.84;;;24.10;41.92
50250;BME280;36133;42.522;27.456;2023-05-15T08:36:13;101421.19;;;23.94;42.81
50250;BME280;36133;42.522;27.456;2023-05-15T08:38:40;101458.38;;;24.72;41.32
50250;BME280;36133;42.522;27.456;2023-05-15T08:41:32;101448.44;;;25.61;39.36
50250;BME280;36133;42.522;27.456;2023-05-15T08:44:02;101440.88;;;26.04;39.14
50250;BME280;36133;42.522;27.456;2023-05-15T08:46:28;101433.50;;;25.57;40.92
50250;BME280;36133;42.522;27.456;2023-05-15T08:48:55;101431.06;;;24.76;41.23
50250;BME280;36133;42.522;27.456;2023-05-15T08:51:21;101453.78;;;23.36;45.08
50250;BME280;36133;42.522;27.456;2023-05-15T08:53:48;101425.53;;;24.76;42.36
50250;BME280;36133;42.522;27.456;2023-05-15T08:56:14;101457.69;;;23.79;44.26
50250;BME280;36133;42.522;27.456;2023-05-15T08:58:41;101392.59;;;25.01;40.32
50250;BME280;36133;42.522;27.456;2023-05-15T09:01:07;101366.28;;;23.65;42.54
50250;BME280;36133;42.522;27.456;2023-05-15T09:03:33;101354.41;;;23.21;43.83
50250;BME280;36133;42.522;27.456;2023-05-15T09:05:59;101399.38;;;21.92;47.39
50250;BME280;36133;42.522;27.456;2023-05-15T09:08:25;101379.97;;;22.78;45.28
50250;BME280;36133;42.522;27.456;2023-05-15T09:10:55;101403.88;;;22.10;46.50
50250;BME280;36133;42.522;27.456;2023-05-15T09:13:25;101469.47;;;23.53;45.31
50250;BME280;36133;42.522;27.456;2023-05-15T09:15:51;101438.59;;;25.23;41.87
50250;BME280;36133;42.522;27.456;2023-05-15T09:18:17;101406.34;;;27.03;38.53
50250;BME280;36133;42.522;27.456;2023-05-15T09:20:42;101432.38;;;27.87;37.00
50250;BME280;36133;42.522;27.456;2023-05-15T09:23:21;101338.53;;;26.44;38.45
50250;BME280;36133;42.522;27.456;2023-05-15T09:25:47;101396.88;;;26.88;38.17
50250;BME280;36133;42.522;27.456;2023-05-15T09:30:59;101425.47;;;28.63;35.72
50250;BME280;36133;42.522;27.456;2023-05-15T09:33:33;101381.97;;;26.74;37.06
50250;BME280;36133;42.522;27.456;2023-05-15T09:36:00;101414.59;;;26.16;38.65
50250;BME280;36133;42.522;27.456;2023-05-15T09:38:26;101437.56;;;26.07;40.10
50250;BME280;36133;42.522;27.456;2023-05-15T09:41:03;101242.69;;;24.21;41.51
50250;BME280;36133;42.522;27.456;2023-05-15T09:43:35;101430.97;;;27.14;37.85
50250;BME280;36133;42.522;27.456;2023-05-15T09:46:01;101337.56;;;28.09;35.85
50250;BME280;36133;42.522;27.456;2023-05-15T09:48:27;101295.72;;;27.17;36.51
50250;BME280;36133;42.522;27.456;2023-05-15T09:50:53;101436.03;;;27.62;36.45
50250;BME280;36133;42.522;27.456;2023-05-15T09:53:20;101371.00;;;25.56;39.67
50250;BME280;36133;42.522;27.456;2023-05-15T09:55:47;101437.84;;;26.10;39.78
50250;BME280;36133;42.522;27.456;2023-05-15T09:58:17;101379.13;;;25.73;39.75
50250;BME280;36133;42.522;27.456;2023-05-15T10:00:44;101363.19;;;27.51;36.45
50250;BME280;36133;42.522;27.456;2023-05-15T10:03:11;101324.00;;;27.08;37.04
50250;BME280;36133;42.522;27.456;2023-05-15T10:05:38;101323.00;;;25.87;38.70
50250;BME280;36133;42.522;27.456;2023-05-15T10:08:03;101422.41;;;25.47;41.12
50250;BME280;36133;42.522;27.456;2023-05-15T10:10:29;101427.56;;;25.28;41.60
50250;BME280;36133;42.522;27.456;2023-05-15T10:12:57;101321.63;;;26.36;38.76
50250;BME280;36133;42.522;27.456;2023-05-15T10:15:24;101382.09;;;27.93;36.83
50250;BME280;36133;42.522;27.456;2023-05-15T10:17:51;101320.25;;;29.09;34.47
50250;BME280;36133;42.522;27.456;2023-05-15T10:20:19;101407.03;;;29.72;33.44
50250;BME280;36133;42.522;27.456;2023-05-15T10:22:48;101373.34;;;29.93;32.70
50250;BME280;36133;42.522;27.456;2023-05-15T10:25:40;101397.63;;;29.87;33.74
50250;BME280;36133;42.522;27.456;2023-05-15T10:28:09;101387.25;;;31.23;31.37
50250;BME280;36133;42.522;27.456;2023-05-15T10:30:36;101346.47;;;28.74;33.58
50250;BME280;36133;42.522;27.456;2023-05-15T10:33:05;101411.28;;;30.08;33.89
50250;BME280;36133;42.522;27.456;2023-05-15T10:35:31;101412.94;;;26.97;37.69
50250;BME280;36133;42.522;27.456;2023-05-15T10:37:58;101322.13;;;27.97;35.76
50250;BME280;36133;42.522;27.456;2023-05-15T10:40:27;101186.06;;;25.49;38.05
50250;BME280;36133;42.522;27.456;2023-05-15T10:42:54;101350.97;;;27.52;36.63
50250;BME280;36133;42.522;27.456;2023-05-15T10:45:21;101187.44;;;27.42;35.17
50250;BME280;36133;42.522;27.456;2023-05-15T10:47:47;101156.22;;;28.90;33.83
50250;BME280;36133;42.522;27.456;2023-05-15T10:50:13;101389.78;;;29.52;33.67
50250;BME280;36133;42.522;27.456;2023-05-15T10:52:39;101064.72;;;25.37;37.45
50250;BME280;36133;42.522;27.456;2023-05-15T10:55:06;101324.06;;;26.83;38.48
50250;BME280;36133;42.522;27.456;2023-05-15T10:57:32;101208.44;;;26.44;37.63
50250;BME280;36133;42.522;27.456;2023-05-15T10:59:58;101111.25;;;26.41;36.18
50250;BME280;36133;42.522;27.456;2023-05-15T11:02:26;101372.97;;;29.99;33.63
50250;BME280;36133;42.522;27.456;2023-05-15T11:04:59;101367.28;;;30.10;32.74
50250;BME280;36133;42.522;27.456;2023-05-15T11:07:26;101367.00;;;27.60;36.15
50250;BME280;36133;42.522;27.456;2023-05-15T11:09:53;101360.66;;;28.72;35.57
50250;BME280;36133;42.522;27.456;2023-05-15T11:12:19;101367.84;;;28.05;35.24
50250;BME280;36133;42.522;27.456;2023-05-15T11:17:16;101308.53;;;26.87;36.52
50250;BME280;36133;42.522;27.456;2023-05-15T11:22:18;101381.50;;;27.96;35.57
50250;BME280;36133;42.522;27.456;2023-05-15T11:25:07;101306.06;;;28.81;33.80
50250;BME280;36133;42.522;27.456;2023-05-15T11:32:42;101262.03;;;30.39;30.94
50250;BME280;36133;42.522;27.456;2023-05-15T11:35:13;101373.56;;;30.34;31.90
50250;BME280;36133;42.522;27.456;2023-05-15T11:37:44;101336.44;;;28.15;34.29
50250;BME280;36133;42.522;27.456;2023-05-15T11:41:01;101078.72;;;27.16;33.90
50250;BME280;36133;42.522;27.456;2023-05-15T11:43:24;101195.97;;;27.85;33.90
50250;BME280;36133;42.522;27.456;2023-05-15T11:48:29;101346.94;;;27.24;36.30
50250;BME280;36133;42.522;27.456;2023-05-15T11:50:55;101137.97;;;25.86;37.21
50250;BME280;36133;42.522;27.456;2023-05-15T11:53:21;101364.75;;;27.72;36.47
50250;BME280;36133;42.522;27.456;2023-05-15T11:55:51;101330.19;;;25.88;38.73
50250;BME280;36133;42.522;27.456;2023-05-15T11:58:18;101091.25;;;25.84;37.20
50250;BME280;36133;42.522;27.456;2023-05-15T12:00:47;101063.47;;;26.74;35.28
50250;BME280;36133;42.522;27.456;2023-05-15T12:03:31;101357.91;;;29.63;33.76
50250;BME280;36133;42.522;27.456;2023-05-15T12:05:57;101330.91;;;28.44;35.50
50250;BME280;36133;42.522;27.456;2023-05-15T12:08:22;101131.47;;;28.27;33.60
50250;BME280;36133;42.522;27.456;2023-05-15T12:10:48;101242.16;;;27.70;35.16
50250;BME280;36133;42.522;27.456;2023-05-15T12:13:16;101315.38;;;27.75;36.32
50250;BME280;36133;42.522;27.456;2023-05-15T12:15:45;101299.88;;;27.63;36.32
50250;BME280;36133;42.522;27.456;2023-05-15T12:18:12;101328.84;;;26.06;39.55
50250;BME280;36133;42.522;27.456;2023-05-15T12:20:38;101225.41;;;24.94;40.15
50250;BME280;36133;42.522;27.456;2023-05-15T12:23:06;101319.03;;;25.48;41.00
50250;BME280;36133;42.522;27.456;2023-05-15T12:25:33;101321.63;;;25.02;42.03
50250;BME280;36133;42.522;27.456;2023-05-15T12:28:02;101272.94;;;26.45;39.22
50250;BME280;36133;42.522;27.456;2023-05-15T12:30:29;101311.94;;;26.33;39.13
50250;BME280;36133;42.522;27.456;2023-05-15T12:33:06;101272.09;;;24.95;41.22
50250;BME280;36133;42.522;27.456;2023-05-15T12:35:35;101055.91;;;23.27;42.34
50250;BME280;36133;42.522;27.456;2023-05-15T12:38:05;100912.38;;;22.01;43.45
50250;BME280;36133;42.522;27.456;2023-05-15T12:40:35;101261.56;;;23.71;44.85
50250;BME280;36133;42.522;27.456;2023-05-15T12:43:06;101295.00;;;23.03;46.65
50250;BME280;36133;42.522;27.456;2023-05-15T12:45:32;101309.63;;;23.31;46.12
50250;BME280;36133;42.522;27.456;2023-05-15T12:48:00;101307.41;;;23.28;45.89
50250;BME280;36133;42.522;27.456;2023-05-15T12:50:26;101153.56;;;21.88;47.49
50250;BME280;36133;42.522;27.456;2023-05-15T12:53:02;101310.16;;;22.67;48.06
50250;BME280;36133;42.522;27.456;2023-05-15T12:55:30;101205.53;;;23.33;45.33
50250;BME280;36133;42.522;27.456;2023-05-15T12:57:57;101177.03;;;21.00;49.55
50250;BME280;36133;42.522;27.456;2023-05-15T13:00:24;101217.41;;;22.46;47.00
50250;BME280;36133;42.522;27.456;2023-05-15T13:02:54;101170.16;;;21.60;48.36
50250;BME280;36133;42.522;27.456;2023-05-15T13:05:27;101341.28;;;23.06;47.89
50250;BME280;36133;42.522;27.456;2023-05-15T13:07:57;101343.56;;;23.36;46.08
50250;BME280;36133;42.522;27.456;2023-05-15T13:10:23;101351.19;;;23.73;44.20
50250;BME280;36133;42.522;27.456;2023-05-15T13:12:54;101300.94;;;24.62;41.54
50250;BME280;36133;42.522;27.456;2023-05-15T13:15:30;101270.00;;;22.88;43.69
50250;BME280;36133;42.522;27.456;2023-05-15T13:18:09;101355.78;;;24.21;42.13
50250;BME280;36133;42.522;27.456;2023-05-15T13:20:36;101344.94;;;24.37;41.64